sensor_id;sensor_type;location;lat;lon;timestamp;pressure;altitude;pressure_sealevel;temperature;humidity
42725;BME280;28369;44.046;23.014;2023-03-14T00:00:58;100555.59;;;5.60;46.69
42725;BME280;28369;44.046;23.014;2023-03-14T00:03:23;100935.97;;;7.90;46.62
42725;BME280;28369;44.046;23.014;2023-03-14T00:05:49;100702.94;;;6.50;46.45
42725;BME280;28369;44.046;23.014;2023-03-14T00:08:15;100929.56;;;7.94;46.41
42725;BME280;28369;44.046;23.014;2023-03-14T00:10:41;101416.06;;;11.64;45.18
42725;BME280;28369;44.046;23.014;2023-03-14T00:13:07;101006.59;;;8.93;45.53
42725;BME280;28369;44.046;23.014;2023-03-14T00:15:34;101337.50;;;10.88;45.37
42725;BME280;28369;44.046;23.014;2023-03-14T00:18:00;101350.44;;;11.03;45.72
42725;BME280;28369;44.046;23.014;2023-03-14T00:20:26;101088.41;;;9.36;45.35
42725;BME280;28369;44.046;23.014;2023-03-14T00:22:51;101399.31;;;11.18;45.78
42725;BME280;28369;44.046;23.014;2023-03-14T00:25:17;101339.22;;;11.01;45.35
42725;BME280;28369;44.046;23.014;2023-03-14T00:27:43;100560.59;;;6.17;45.15
42725;BME280;28369;44.046;23.014;2023-03-14T00:30:11;101264.13;;;10.37;44.78
42725;BME280;28369;44.046;23.014;2023-03-14T00:32:37;101073.69;;;9.46;44.83
42725;BME280;28369;44.046;23.014;2023-03-14T00:35:03;101052.78;;;9.20;44.87
42725;BME280;28369;44.046;23.014;2023-03-14T00:37:29;100617.13;;;6.70;44.35
42725;BME280;28369;44.046;23.014;2023-03-14T00:39:54;100619.53;;;6.47;44.29
42725;BME280;28369;44.046;23.014;2023-03-14T00:42:20;100954.84;;;8.71;44.21
42725;BME280;28369;44.046;23.014;2023-03-14T00:44:46;100560.06;;;6.12;44.50
42725;BME280;28369;44.046;23.014;2023-03-14T00:47:11;100591.13;;;6.68;44.19
42725;BME280;28369;44.046;23.014;2023-03-14T00:49:37;100623.50;;;6.66;44.87
42725;BME280;28369;44.046;23.014;2023-03-14T00:52:03;100561.78;;;5.71;45.59
42725;BME280;28369;44.046;23.014;2023-03-14T00:54:29;101380.75;;;10.84;45.83
42725;BME280;28369;44.046;23.014;2023-03-14T00:56:55;100523.94;;;5.66;45.64
42725;BME280;28369;44.046;23.014;2023-03-14T00:59:21;101024.16;;;8.67;45.90
42725;BME280;28369;44.046;23.014;2023-03-14T01:01:46;101188.56;;;9.42;45.73
42725;BME280;28369;44.046;23.014;2023-03-14T01:04:12;101000.06;;;8.23;47.30
42725;BME280;28369;44.046;23.014;2023-03-14T01:06:38;100450.13;;;4.96;47.73
42725;BME280;28369;44.046;23.014;2023-03-14T01:09:04;101070.91;;;8.99;47.82
42725;BME280;28369;44.046;23.014;2023-03-14T01:11:32;100804.63;;;7.84;46.15
42725;BME280;28369;44.046;23.014;2023-03-14T01:13:58;100873.72;;;8.07;46.09
42725;BME280;28369;44.046;23.014;2023-03-14T01:16:26;100535.25;;;5.92;45.01
42725;BME280;28369;44.046;23.014;2023-03-14T01:18:52;100557.94;;;5.77;45.42
42725;BME280;28369;44.046;23.014;2023-03-14T01:21:38;101390.28;;;10.98;46.27
42725;BME280;28369;44.046;23.014;2023-03-14T01:24:05;100583.34;;;5.88;46.39
42725;BME280;28369;44.046;23.014;2023-03-14T01:26:32;101426.03;;;10.77;46.43
42725;BME280;28369;44.046;23.014;2023-03-14T01:28:59;100753.22;;;6.67;47.01
42725;BME280;28369;44.046;23.014;2023-03-14T01:31:25;100513.00;;;5.46;46.78
42725;BME280;28369;44.046;23.014;2023-03-14T01:33:52;101036.94;;;8.85;47.15
42725;BME280;28369;44.046;23.014;2023-03-14T01:36:18;100797.13;;;6.47;48.81
42725;BME280;28369;44.046;23.014;2023-03-14T01:38:45;100546.81;;;4.48;49.80
42725;BME280;28369;44.046;23.014;2023-03-14T01:41:20;100467.81;;;3.45;50.82
42725;BME280;28369;44.046;23.014;2023-03-14T01:43:47;101070.84;;;7.00;51.81
42725;BME280;28369;44.046;23.014;2023-03-14T01:46:37;100681.75;;;4.87;51.79
42725;BME280;28369;44.046;23.014;2023-03-14T01:49:25;101082.06;;;7.71;51.35
42725;BME280;28369;44.046;23.014;2023-03-14T01:52:13;100990.94;;;6.81;50.43
42725;BME280;28369;44.046;23.014;2023-03-14T01:55:05;101365.56;;;9.64;50.36
42725;BME280;28369;44.046;23.014;2023-03-14T01:57:39;100788.94;;;5.68;50.69
42725;BME280;28369;44.046;23.014;2023-03-14T02:00:14;101352.69;;;9.08;51.72
42725;BME280;28369;44.046;23.014;2023-03-14T02:02:45;100513.44;;;3.82;51.49
42725;BME280;28369;44.046;23.014;2023-03-14T02:05:13;100460.31;;;3.55;51.65
42725;BME280;28369;44.046;23.014;2023-03-14T02:07:55;101336.34;;;8.77;52.36
42725;BME280;28369;44.046;23.014;2023-03-14T02:10:26;100494.28;;;3.52;52.49
42725;BME280;28369;44.046;23.014;2023-03-14T02:12:55;100550.47;;;4.89;50.15
42725;BME280;28369;44.046;23.014;2023-03-14T02:15:23;100879.59;;;6.51;50.27
42725;BME280;28369;44.046;23.014;2023-03-14T02:17:49;100405.84;;;3.23;51.53
42725;BME280;28369;44.046;23.014;2023-03-14T02:23:15;100430.38;;;3.34;51.66
42725;BME280;28369;44.046;23.014;2023-03-14T02:28:09;100474.47;;;4.10;51.72
42725;BME280;28369;44.046;23.014;2023-03-14T02:30:36;100764.56;;;5.55;52.30
42725;BME280;28369;44.046;23.014;2023-03-14T02:33:09;100470.00;;;3.98;50.96
42725;BME280;28369;44.046;23.014;2023-03-14T02:35:56;101328.69;;;9.78;50.72
42725;BME280;28369;44.046;23.014;2023-03-14T02:41:12;100445.00;;;4.67;50.01
42725;BME280;28369;44.046;23.014;2023-03-14T02:43:38;100551.00;;;5.09;49.67
42725;BME280;28369;44.046;23.014;2023-03-14T02:46:05;100517.50;;;5.02;49.56
42725;BME280;28369;44.046;23.014;2023-03-14T02:48:36;101211.59;;;9.63;48.71
42725;BME280;28369;44.046;23.014;2023-03-14T02:51:04;100735.41;;;7.12;48.18
42725;BME280;28369;44.046;23.014;2023-03-14T02:53:32;100398.00;;;5.24;48.27
42725;BME280;28369;44.046;23.014;2023-03-14T02:55:59;100634.28;;;6.61;47.88
42725;BME280;28369;44.046;23.014;2023-03-14T02:58:25;100672.00;;;6.70;47.99
42725;BME280;28369;44.046;23.014;2023-03-14T03:00:51;100970.19;;;8.64;48.11
42725;BME280;28369;44.046;23.014;2023-03-14T03:03:17;100477.19;;;4.52;49.11
42725;BME280;28369;44.046;23.014;2023-03-14T03:05:47;100432.44;;;3.88;50.73
42725;BME280;28369;44.046;23.014;2023-03-14T03:08:13;101008.78;;;7.71;50.82
42725;BME280;28369;44.046;23.014;2023-03-14T03:10:38;100581.72;;;4.89;50.88
42725;BME280;28369;44.046;23.014;2023-03-14T03:13:06;100409.31;;;3.38;51.65
42725;BME280;28369;44.046;23.014;2023-03-14T03:15:32;100590.78;;;5.40;50.28
42725;BME280;28369;44.046;23.014;2023-03-14T03:17:57;100637.28;;;5.75;49.97
42725;BME280;28369;44.046;23.014;2023-03-14T03:20:23;100529.75;;;5.15;49.73
42725;BME280;28369;44.046;23.014;2023-03-14T03:22:49;101271.03;;;9.64;49.60
42725;BME280;28369;44.046;23.014;2023-03-14T03:25:15;101000.56;;;8.03;49.99
42725;BME280;28369;44.046;23.014;2023-03-14T03:27:47;101358.50;;;9.64;51.01
42725;BME280;28369;44.046;23.014;2023-03-14T03:30:13;101336.47;;;9.54;51.10
42725;BME280;28369;44.046;23.014;2023-03-14T03:32:39;100434.53;;;3.06;53.12
42725;BME280;28369;44.046;23.014;2023-03-14T03:35:05;100777.09;;;5.19;53.76
42725;BME280;28369;44.046;23.014;2023-03-14T03:37:33;100768.28;;;4.45;54.19
42725;BME280;28369;44.046;23.014;2023-03-14T03:40:01;101017.19;;;6.36;55.02
42725;BME280;28369;44.046;23.014;2023-03-14T03:42:29;100507.41;;;3.03;54.78
42725;BME280;28369;44.046;23.014;2023-03-14T03:44:55;100381.28;;;2.51;54.36
42725;BME280;28369;44.046;23.014;2023-03-14T03:47:21;100973.53;;;6.82;52.93
42725;BME280;28369;44.046;23.014;2023-03-14T03:49:49;100657.00;;;5.23;51.83
42725;BME280;28369;44.046;23.014;2023-03-14T03:52:15;100780.84;;;6.02;51.28
42725;BME280;28369;44.046;23.014;2023-03-14T03:54:41;100429.84;;;3.73;51.38
42725;BME280;28369;44.046;23.014;2023-03-14T03:57:07;100463.78;;;4.29;50.67
42725;BME280;28369;44.046;23.014;2023-03-14T03:59:33;100510.25;;;4.93;49.35
42725;BME280;28369;44.046;23.014;2023-03-14T04:02:00;100837.81;;;7.19;49.58
42725;BME280;28369;44.046;23.014;2023-03-14T04:04:26;100948.81;;;7.68;49.27
42725;BME280;28369;44.046;23.014;2023-03-14T04:06:53;100435.69;;;4.06;49.93
42725;BME280;28369;44.046;23.014;2023-03-14T04:09:20;100468.28;;;4.42;50.21
42725;BME280;28369;44.046;23.014;2023-03-14T04:11:46;100961.06;;;7.93;49.74
42725;BME280;28369;44.046;23.014;2023-03-14T04:14:12;100512.91;;;4.64;50.04
42725;BME280;28369;44.046;23.014;2023-03-14T04:16:38;100974.97;;;7.68;50.50
42725;BME280;28369;44.046;23.014;2023-03-14T04:19:07;100769.97;;;6.50;49.87
42725;BME280;28369;44.046;23.014;2023-03-14T04:21:33;100592.84;;;5.20;50.05
42725;BME280;28369;44.046;23.014;2023-03-14T04:23:59;100590.38;;;5.46;49.88
42725;BME280;28369;44.046;23.014;2023-03-14T04:26:26;100552.06;;;5.33;49.65
42725;BME280;28369;44.046;23.014;2023-03-14T04:28:51;100639.69;;;5.36;50.27
42725;BME280;28369;44.046;23.014;2023-03-14T04:31:20;100950.38;;;7.57;50.77
42725;BME280;28369;44.046;23.014;2023-03-14T04:33:46;100740.84;;;6.01;50.71
42725;BME280;28369;44.046;23.014;2023-03-14T04:36:13;100445.19;;;4.36;50.18
42725;BME280;28369;44.046;23.014;2023-03-14T04:38:39;100477.81;;;4.41;49.84
42725;BME280;28369;44.046;23.014;2023-03-14T04:41:05;100763.38;;;6.44;50.40
42725;BME280;28369;44.046;23.014;2023-03-14T04:43:32;100858.59;;;6.53;51.57
42725;BME280;28369;44.046;23.014;2023-03-14T04:46:00;101039.78;;;6.81;52.74
42725;BME280;28369;44.046;23.014;2023-03-14T04:48:29;100977.84;;;6.96;52.47
42725;BME280;28369;44.046;23.014;2023-03-14T04:50:56;100434.72;;;3.63;51.75
42725;BME280;28369;44.046;23.014;2023-03-14T04:53:24;100399.88;;;3.52;51.72
42725;BME280;28369;44.046;23.014;2023-03-14T04:55:51;100435.34;;;3.83;51.71
42725;BME280;28369;44.046;23.014;2023-03-14T04:58:18;100843.28;;;5.91;52.15
42725;BME280;28369;44.046;23.014;2023-03-14T05:00:46;100401.59;;;3.37;52.08
42725;BME280;28369;44.046;23.014;2023-03-14T05:03:14;100731.84;;;5.49;51.97
42725;BME280;28369;44.046;23.014;2023-03-14T05:05:41;101347.06;;;9.40;51.52
42725;BME280;28369;44.046;23.014;2023-03-14T05:08:07;100471.22;;;4.07;51.05
42725;BME280;28369;44.046;23.014;2023-03-14T05:10:36;100417.03;;;3.54;51.58
42725;BME280;28369;44.046;23.014;2023-03-14T05:13:09;100969.09;;;7.24;51.19
42725;BME280;28369;44.046;23.014;2023-03-14T05:15:36;101306.31;;;9.47;50.96
42725;BME280;28369;44.046;23.014;2023-03-14T05:18:03;100798.00;;;6.48;50.04
42725;BME280;28369;44.046;23.014;2023-03-14T05:20:31;100583.72;;;5.13;49.71
42725;BME280;28369;44.046;23.014;2023-03-14T05:22:57;100393.69;;;4.41;49.04
42725;BME280;28369;44.046;23.014;2023-03-14T05:25:23;100779.06;;;6.84;48.77
42725;BME280;28369;44.046;23.014;2023-03-14T05:27:48;100458.00;;;5.09;48.14
42725;BME280;28369;44.046;23.014;2023-03-14T05:30:14;100430.38;;;5.07;47.85
42725;BME280;28369;44.046;23.014;2023-03-14T05:32:41;100372.31;;;5.45;46.96
42725;BME280;28369;44.046;23.014;2023-03-14T05:35:07;100887.31;;;8.75;46.76
42725;BME280;28369;44.046;23.014;2023-03-14T05:37:32;100456.69;;;6.35;46.63
42725;BME280;28369;44.046;23.014;2023-03-14T05:39:59;100484.56;;;6.61;46.04
42725;BME280;28369;44.046;23.014;2023-03-14T05:42:25;100596.34;;;7.68;45.99
42725;BME280;28369;44.046;23.014;2023-03-14T05:44:51;101010.81;;;10.27;45.92
42725;BME280;28369;44.046;23.014;2023-03-14T05:47:16;100521.09;;;7.48;45.24
42725;BME280;28369;44.046;23.014;2023-03-14T05:49:42;100964.59;;;10.24;44.92
42725;BME280;28369;44.046;23.014;2023-03-14T05:52:08;100417.03;;;6.91;44.88
42725;BME280;28369;44.046;23.014;2023-03-14T05:54:33;100482.41;;;7.40;44.65
42725;BME280;28369;44.046;23.014;2023-03-14T05:56:59;100871.44;;;10.17;44.23
42725;BME280;28369;44.046;23.014;2023-03-14T05:59:25;100411.00;;;7.51;43.74
42725;BME280;28369;44.046;23.014;2023-03-14T06:01:50;100992.41;;;11.06;43.55
42725;BME280;28369;44.046;23.014;2023-03-14T06:04:16;101006.72;;;11.24;43.64
42725;BME280;28369;44.046;23.014;2023-03-14T06:06:42;100896.78;;;10.41;43.32
42725;BME280;28369;44.046;23.014;2023-03-14T06:09:07;100519.44;;;8.18;43.49
42725;BME280;28369;44.046;23.014;2023-03-14T06:11:33;100711.06;;;9.29;43.45
42725;BME280;28369;44.046;23.014;2023-03-14T06:13:58;100518.63;;;7.82;43.74
42725;BME280;28369;44.046;23.014;2023-03-14T06:16:24;100788.41;;;9.12;44.95
42725;BME280;28369;44.046;23.014;2023-03-14T06:18:49;100766.94;;;8.96;45.24
42725;BME280;28369;44.046;23.014;2023-03-14T06:21:16;100832.63;;;9.75;44.96
42725;BME280;28369;44.046;23.014;2023-03-14T06:23:42;100539.22;;;8.33;45.14
42725;BME280;28369;44.046;23.014;2023-03-14T06:26:07;100985.53;;;11.26;44.50
42725;BME280;28369;44.046;23.014;2023-03-14T06:28:33;100494.69;;;8.33;44.39
42725;BME280;28369;44.046;23.014;2023-03-14T06:30:59;101013.16;;;11.85;44.55
42725;BME280;28369;44.046;23.014;2023-03-14T06:33:25;101137.72;;;12.41;44.97
42725;BME280;28369;44.046;23.014;2023-03-14T06:35:51;100631.41;;;9.19;44.56
42725;BME280;28369;44.046;23.014;2023-03-14T06:38:17;100990.91;;;11.78;44.20
42725;BME280;28369;44.046;23.014;2023-03-14T06:40:42;100937.41;;;11.56;43.61
42725;BME280;28369;44.046;23.014;2023-03-14T06:43:08;101249.72;;;13.52;43.55
42725;BME280;28369;44.046;23.014;2023-03-14T06:45:34;100784.00;;;10.37;44.40
42725;BME280;28369;44.046;23.014;2023-03-14T06:47:59;100990.41;;;11.84;44.36
42725;BME280;28369;44.046;23.014;2023-03-14T06:50:25;100462.31;;;8.79;43.80
42725;BME280;28369;44.046;23.014;2023-03-14T06:52:51;100811.47;;;10.98;42.95
42725;BME280;28369;44.046;23.014;2023-03-14T06:55:17;100867.94;;;10.62;43.09
42725;BME280;28369;44.046;23.014;2023-03-14T06:57:42;101258.06;;;13.57;42.81
42725;BME280;28369;44.046;23.014;2023-03-14T07:00:10;101307.50;;;13.67;43.23
42725;BME280;28369;44.046;23.014;2023-03-14T07:02:36;101122.53;;;13.16;41.85
42725;BME280;28369;44.046;23.014;2023-03-14T07:05:02;100882.09;;;11.78;41.43
42725;BME280;28369;44.046;23.014;2023-03-14T07:07:27;100971.56;;;12.72;42.44
42725;BME280;28369;44.046;23.014;2023-03-14T07:09:53;100462.06;;;10.01;41.90
42725;BME280;28369;44.046;23.014;2023-03-14T07:12:19;100930.09;;;13.13;41.19
42725;BME280;28369;44.046;23.014;2023-03-14T07:14:44;101040.91;;;13.83;39.34
42725;BME280;28369;44.046;23.014;2023-03-14T07:17:10;100619.44;;;11.29;38.47
42725;BME280;28369;44.046;23.014;2023-03-14T07:19:35;100827.00;;;12.56;37.90
42725;BME280;28369;44.046;23.014;2023-03-14T07:22:03;100910.25;;;12.99;38.16
42725;BME280;28369;44.046;23.014;2023-03-14T07:24:29;100855.78;;;12.59;36.76
42725;BME280;28369;44.046;23.014;2023-03-14T07:26:55;100986.97;;;13.66;36.97
42725;BME280;28369;44.046;23.014;2023-03-14T07:29:20;100960.00;;;13.43;37.36
42725;BME280;28369;44.046;23.014;2023-03-14T07:31:46;100968.34;;;13.68;37.28
42725;BME280;28369;44.046;23.014;2023-03-14T07:34:11;101237.88;;;15.80;37.42
42725;BME280;28369;44.046;23.014;2023-03-14T07:36:37;100984.84;;;14.37;37.07
42725;BME280;28369;44.046;23.014;2023-03-14T07:39:03;101125.78;;;15.14;35.72
42725;BME280;28369;44.046;23.014;2023-03-14T07:41:29;100886.78;;;13.45;36.74
42725;BME280;28369;44.046;23.014;2023-03-14T07:43:56;100985.88;;;14.16;37.07
42725;BME280;28369;44.046;23.014;2023-03-14T07:46:22;100504.34;;;11.41;35.31
42725;BME280;28369;44.046;23.014;2023-03-14T07:48:48;100964.59;;;14.55;34.15
42725;BME280;28369;44.046;23.014;2023-03-14T07:51:13;100855.75;;;13.94;34.03
42725;BME280;28369;44.046;23.014;2023-03-14T07:53:39;100493.09;;;11.88;34.07
42725;BME280;28369;44.046;23.014;2023-03-14T07:56:05;101244.31;;;17.03;35.16
42725;BME280;28369;44.046;23.014;2023-03-14T07:58:30;101243.41;;;16.76;34.33
42725;BME280;28369;44.046;23.014;2023-03-14T08:00:58;100915.53;;;15.07;33.37
42725;BME280;28369;44.046;23.014;2023-03-14T08:03:24;100851.25;;;14.78;33.65
42725;BME280;28369;44.046;23.014;2023-03-14T08:05:50;101108.56;;;16.54;34.73
42725;BME280;28369;44.046;23.014;2023-03-14T08:08:16;101013.59;;;16.39;34.26
42725;BME280;28369;44.046;23.014;2023-03-14T08:10:42;100616.91;;;13.95;33.93
42725;BME280;28369;44.046;23.014;2023-03-14T08:13:09;100761.25;;;14.60;33.23
42725;BME280;28369;44.046;23.014;2023-03-14T08:15:34;101105.75;;;17.24;33.39
42725;BME280;28369;44.046;23.014;2023-03-14T08:18:00;101203.50;;;17.98;32.36
42725;BME280;28369;44.046;23.014;2023-03-14T08:20:27;101192.19;;;18.04;33.20
42725;BME280;28369;44.046;23.014;2023-03-14T08:22:58;100535.97;;;13.58;33.27
42725;BME280;28369;44.046;23.014;2023-03-14T08:25:26;100937.69;;;15.86;33.36
42725;BME280;28369;44.046;23.014;2023-03-14T08:27:52;100755.72;;;15.08;33.53
42725;BME280;28369;44.046;23.014;2023-03-14T08:30:19;100869.31;;;15.89;33.20
42725;BME280;28369;44.046;23.014;2023-03-14T08:32:45;101040.63;;;17.20;32.79
42725;BME280;28369;44.046;23.014;2023-03-14T08:35:11;100876.38;;;16.74;32.76
42725;BME280;28369;44.046;23.014;2023-03-14T08:37:37;100789.50;;;16.17;31.89
42725;BME280;28369;44.046;23.014;2023-03-14T08:40:04;100801.69;;;16.36;32.65
42725;BME280;28369;44.046;23.014;2023-03-14T08:42:32;101175.94;;;19.13;30.71
42725;BME280;28369;44.046;23.014;2023-03-14T08:44:58;101021.28;;;17.94;30.88
42725;BME280;28369;44.046;23.014;2023-03-14T08:47:24;100951.97;;;17.95;30.20
42725;BME280;28369;44.046;23.014;2023-03-14T08:49:51;100918.28;;;17.30;30.70
42725;BME280;28369;44.046;23.014;2023-03-14T08:52:16;100823.31;;;17.24;30.61
42725;BME280;28369;44.046;23.014;2023-03-14T08:54:46;101163.19;;;18.83;31.93
42725;BME280;28369;44.046;23.014;2023-03-14T08:57:11;100993.66;;;18.20;32.20
42725;BME280;28369;44.046;23.014;2023-03-14T08:59:37;100859.28;;;17.68;32.02
42725;BME280;28369;44.046;23.014;2023-03-14T09:02:03;101149.88;;;19.63;31.48
42725;BME280;28369;44.046;23.014;2023-03-14T09:04:33;100392.81;;;15.17;31.61
42725;BME280;28369;44.046;23.014;2023-03-14T09:06:59;100675.13;;;16.86;30.88
42725;BME280;28369;44.046;23.014;2023-03-14T09:09:25;101127.94;;;19.52;31.49
42725;BME280;28369;44.046;23.014;2023-03-14T09:11:55;101120.88;;;19.91;30.98
42725;BME280;28369;44.046;23.014;2023-03-14T09:14:20;100667.69;;;16.40;31.72
42725;BME280;28369;44.046;23.014;2023-03-14T09:16:46;100829.19;;;17.59;31.96
42725;BME280;28369;44.046;23.014;2023-03-14T09:19:12;100761.47;;;17.55;31.02
42725;BME280;28369;44.046;23.014;2023-03-14T09:21:37;100642.06;;;16.97;31.07
42725;BME280;28369;44.046;23.014;2023-03-14T09:24:04;100749.53;;;17.34;30.59
42725;BME280;28369;44.046;23.014;2023-03-14T09:26:30;100832.34;;;17.71;31.28
42725;BME280;28369;44.046;23.014;2023-03-14T09:28:56;101002.25;;;18.78;31.03
42725;BME280;28369;44.046;23.014;2023-03-14T09:31:21;100651.81;;;17.13;31.24
42725;BME280;28369;44.046;23.014;2023-03-14T09:33:47;100679.88;;;17.55;32.31
42725;BME280;28369;44.046;23.014;2023-03-14T09:36:12;101096.66;;;20.16;32.34
42725;BME280;28369;44.046;23.014;2023-03-14T09:38:38;100678.38;;;17.92;32.12
42725;BME280;28369;44.046;23.014;2023-03-14T09:41:15;100778.22;;;18.58;31.08
42725;BME280;28369;44.046;23.014;2023-03-14T09:43:42;100531.28;;;17.14;30.77
42725;BME280;28369;44.046;23.014;2023-03-14T09:46:10;100336.09;;;16.01;31.89
42725;BME280;28369;44.046;23.014;2023-03-14T09:48:36;100976.09;;;19.74;30.89
42725;BME280;28369;44.046;23.014;2023-03-14T09:51:11;100187.38;;;14.67;31.69
42725;BME280;28369;44.046;23.014;2023-03-14T09:53:46;100916.81;;;19.34;31.23
42725;BME280;28369;44.046;23.014;2023-03-14T09:56:18;100943.22;;;19.44;32.16
42725;BME280;28369;44.046;23.014;2023-03-14T09:58:49;100770.63;;;18.70;32.03
42725;BME280;28369;44.046;23.014;2023-03-14T10:01:19;100943.31;;;20.18;32.56
42725;BME280;28369;44.046;23.014;2023-03-14T10:03:47;101034.63;;;20.88;32.77
42725;BME280;28369;44.046;23.014;2023-03-14T10:06:14;100579.50;;;18.27;31.99
42725;BME280;28369;44.046;23.014;2023-03-14T10:08:45;100818.50;;;19.84;31.54
42725;BME280;28369;44.046;23.014;2023-03-14T10:11:16;101059.81;;;21.52;30.99
42725;BME280;28369;44.046;23.014;2023-03-14T10:16:41;100851.09;;;20.16;31.64
42725;BME280;28369;44.046;23.014;2023-03-14T10:19:11;100265.44;;;16.39;31.14
42725;BME280;28369;44.046;23.014;2023-03-14T10:21:43;100528.38;;;17.55;32.20
42725;BME280;28369;44.046;23.014;2023-03-14T10:27:03;100548.50;;;18.34;31.54
42725;BME280;28369;44.046;23.014;2023-03-14T10:29:31;100995.53;;;21.46;30.88
42725;BME280;28369;44.046;23.014;2023-03-14T10:32:04;100688.59;;;19.33;31.14
42725;BME280;28369;44.046;23.014;2023-03-14T10:34:34;100727.88;;;19.76;31.86
42725;BME280;28369;44.046;23.014;2023-03-14T10:37:16;100690.84;;;19.66;31.43
42725;BME280;28369;44.046;23.014;2023-03-14T10:39:49;100962.50;;;21.32;31.35
42725;BME280;28369;44.046;23.014;2023-03-14T10:42:21;100714.53;;;19.39;30.49
42725;BME280;28369;44.046;23.014;2023-03-14T10:44:54;100475.63;;;18.50;30.15
42725;BME280;28369;44.046;23.014;2023-03-14T10:47:24;100999.31;;;21.30;29.95
42725;BME280;28369;44.046;23.014;2023-03-14T10:49:51;100972.19;;;21.54;30.35
42725;BME280;28369;44.046;23.014;2023-03-14T10:52:26;100747.41;;;19.76;30.59
42725;BME280;28369;44.046;23.014;2023-03-14T10:55:10;100824.00;;;20.92;30.56
42725;BME280;28369;44.046;23.014;2023-03-14T10:57:40;100660.91;;;20.29;28.85
42725;BME280;28369;44.046;23.014;2023-03-14T11:00:17;100680.25;;;20.09;30.48
42725;BME280;28369;44.046;23.014;2023-03-14T11:08:37;100530.16;;;19.79;29.77
42725;BME280;28369;44.046;23.014;2023-03-14T11:11:22;100874.94;;;22.04;29.05
42725;BME280;28369;44.046;23.014;2023-03-14T11:30:23;100820.41;;;22.05;28.40
42725;BME280;28369;44.046;23.014;2023-03-14T11:35:34;100542.53;;;20.43;28.84
42725;BME280;28369;44.046;23.014;2023-03-14T11:38:16;100390.81;;;19.48;29.55
42725;BME280;28369;44.046;23.014;2023-03-14T11:40:49;100344.69;;;19.20;29.24
42725;BME280;28369;44.046;23.014;2023-03-14T11:43:34;100042.63;;;17.72;28.54
42725;BME280;28369;44.046;23.014;2023-03-14T11:49:43;100799.94;;;22.46;27.66
42725;BME280;28369;44.046;23.014;2023-03-14T11:52:41;100199.25;;;18.75;28.43
42725;BME280;28369;44.046;23.014;2023-03-14T11:55:33;100819.13;;;22.69;28.60
42725;BME280;28369;44.046;23.014;2023-03-14T11:58:24;100518.75;;;20.90;28.16
42725;BME280;28369;44.046;23.014;2023-03-14T12:07:34;100289.84;;;19.67;28.47
42725;BME280;28369;44.046;23.014;2023-03-14T12:10:07;100741.81;;;22.73;27.07
42725;BME280;28369;44.046;23.014;2023-03-14T12:12:42;100474.84;;;21.13;27.04
42725;BME280;28369;44.046;23.014;2023-03-14T12:15:46;100386.59;;;20.73;26.54
42725;BME280;28369;44.046;23.014;2023-03-14T12:21:20;100474.47;;;21.36;27.50
42725;BME280;28369;44.046;23.014;2023-03-14T12:59:59;100610.41;;;23.20;27.53
42725;BME280;28369;44.046;23.014;2023-03-14T14:34:02;100194.56;;;21.88;25.47
42725;BME280;28369;44.046;23.014;2023-03-14T14:39:11;99747.06;;;18.92;26.22
42725;BME280;28369;44.046;23.014;2023-03-14T14:41:41;100163.44;;;22.01;25.22
42725;BME280;28369;44.046;23.014;2023-03-14T16:45:31;100058.13;;;20.26;29.10
42725;BME280;28369;44.046;23.014;2023-03-14T16:48:06;99595.66;;;17.14;29.78
42725;BME280;28369;44.046;23.014;2023-03-14T16:50:55;100309.69;;;21.75;29.71
42725;BME280;28369;44.046;23.014;2023-03-14T16:53:25;99880.56;;;18.69;29.78
42725;BME280;28369;44.046;23.014;2023-03-14T16:55:55;100299.22;;;21.53;29.96
42725;BME280;28369;44.046;23.014;2023-03-14T16:58:22;100271.91;;;21.38;29.84
42725;BME280;28369;44.046;23.014;2023-03-14T17:00:48;99572.19;;;16.82;29.85
42725;BME280;28369;44.046;23.014;2023-03-14T17:03:16;100286.06;;;21.52;29.46
42725;BME280;28369;44.046;23.014;2023-03-14T17:05:46;99994.91;;;19.73;29.47
42725;BME280;28369;44.046;23.014;2023-03-14T17:08:16;99532.47;;;16.67;29.53
42725;BME280;28369;44.046;23.014;2023-03-14T17:10:44;99532.06;;;16.64;29.77
42725;BME280;28369;44.046;23.014;2023-03-14T17:13:12;99514.88;;;16.59;29.58
42725;BME280;28369;44.046;23.014;2023-03-14T17:15:45;100301.69;;;21.41;29.28
42725;BME280;28369;44.046;23.014;2023-03-14T17:18:12;99830.09;;;18.47;29.18
42725;BME280;28369;44.046;23.014;2023-03-14T17:20:39;100035.94;;;19.78;29.40
42725;BME280;28369;44.046;23.014;2023-03-14T17:23:07;100149.50;;;20.48;29.08
42725;BME280;28369;44.046;23.014;2023-03-14T17:25:33;99886.06;;;18.61;29.16
42725;BME280;28369;44.046;23.014;2023-03-14T17:28:01;100021.72;;;19.31;28.79
42725;BME280;28369;44.046;23.014;2023-03-14T17:30:28;100033.69;;;19.75;28.61
42725;BME280;28369;44.046;23.014;2023-03-14T17:32:55;99561.34;;;16.49;28.98
42725;BME280;28369;44.046;23.014;2023-03-14T17:35:24;99795.53;;;17.92;28.84
42725;BME280;28369;44.046;23.014;2023-03-14T17:37:51;99781.97;;;17.87;28.49
42725;BME280;28369;44.046;23.014;2023-03-14T17:40:18;99893.81;;;18.56;28.64
42725;BME280;28369;44.046;23.014;2023-03-14T17:42:44;99859.47;;;18.12;28.77
42725;BME280;28369;44.046;23.014;2023-03-14T17:45:10;100292.47;;;20.77;28.38
42725;BME280;28369;44.046;23.014;2023-03-14T17:47:38;100292.09;;;20.87;28.57
42725;BME280;28369;44.046;23.014;2023-03-14T17:50:04;100165.25;;;20.02;28.29
42725;BME280;28369;44.046;23.014;2023-03-14T17:52:34;100015.75;;;19.29;27.97
42725;BME280;28369;44.046;23.014;2023-03-14T17:55:01;99957.47;;;18.92;27.98